Time;durP1;ratioP1;P1;durP2;ratioP2;P2;SDS_P1;SDS_P2;PMS_P1;PMS_P2;Temp;Humidity;BMP_temperature;BMP_pressure;BME280_temperature;BME280_humidity;BME280_pressure;Samples;Min_cycle;Max_cycle;Signal;HPM_P1;HPM_P2
2022/05/06 00:01:51;;;;;;;4.93;2.50;;;;;;;;;;5039558;28;20520;-67
2022/05/06 00:04:17;;;;;;;2.60;2.40;;;;;;;;;;5040683;28;20371;-66
2022/05/06 00:06:43;;;;;;;5.43;2.40;;;;;;;;;;5037910;28;20091;-67
2022/05/06 00:09:09;;;;;;;5.68;2.38;;;;;;;;;;5034664;28;20025;-67
2022/05/06 00:11:35;;;;;;;3.05;2.70;;;;;;;;;;5036077;28;20063;-67
2022/05/06 00:14:01;;;;;;;3.92;2.30;;;;;;;;;;5037850;28;20034;-67
2022/05/06 00:16:27;;;;;;;3.17;2.42;;;;;;;;;;5039056;28;20028;-66
2022/05/06 00:18:54;;;;;;;3.05;2.33;;;;;;;;;;5033055;28;20401;-67
2022/05/06 00:21:20;;;;;;;5.93;2.50;;;;;;;;;;5046940;28;20037;-67
2022/05/06 00:23:46;;;;;;;4.20;2.47;;;;;;;;;;5036087;28;20032;-67
2022/05/06 00:26:12;;;;;;;2.67;2.45;;;;;;;;;;5032339;28;20482;-68
2022/05/06 00:28:38;;;;;;;3.80;2.30;;;;;;;;;;5033860;28;20108;-67
2022/05/06 00:31:06;;;;;;;4.03;2.70;;;;;;;;;;5034957;28;20025;-67
2022/05/06 00:33:32;;;;;;;2.20;2.00;;;;;;;;;;5037707;28;20032;-67
2022/05/06 00:36:00;;;;;;;2.75;2.17;;;;;;;;;;5045505;28;20025;-66
2022/05/06 00:38:27;;;;;;;3.33;2.67;;;;;;;;;;5032270;28;20018;-68
2022/05/06 00:40:53;;;;;;;4.50;2.65;;;;;;;;;;5035399;28;20033;-66
2022/05/06 00:43:20;;;;;;;2.40;2.20;;;;;;;;;;5040058;28;20029;-67
2022/05/06 00:45:54;;;;;;;5.15;2.42;;;;;;;;;;5035114;28;20478;-67
2022/05/06 00:48:31;;;;;;;3.42;2.53;;;;;;;;;;5040319;28;20116;-67
2022/05/06 00:50:59;;;;;;;3.78;2.50;;;;;;;;;;5032293;28;20037;-66
2022/05/06 00:53:26;;;;;;;3.80;2.15;;;;;;;;;;5071426;28;20025;-67
2022/05/06 00:55:52;;;;;;;2.72;2.53;;;;;;;;;;5040940;28;20046;-67
2022/05/06 00:58:19;;;;;;;5.05;2.60;;;;;;;;;;5042598;28;20032;-66
2022/05/06 01:00:46;;;;;;;3.83;2.38;;;;;;;;;;5032660;28;20035;-67
2022/05/06 01:03:12;;;;;;;4.28;2.65;;;;;;;;;;5034881;28;20043;-67
2022/05/06 01:05:39;;;;;;;2.70;2.50;;;;;;;;;;5035860;28;20037;-66
2022/05/06 01:08:05;;;;;;;3.15;2.47;;;;;;;;;;5040602;28;20039;-66
2022/05/06 01:10:31;;;;;;;2.88;2.28;;;;;;;;;;5039936;28;20378;-67
2022/05/06 01:12:57;;;;;;;2.60;2.30;;;;;;;;;;5046041;28;20048;-66
2022/05/06 01:15:28;;;;;;;3.80;2.65;;;;;;;;;;5034344;28;20032;-66
2022/05/06 01:17:56;;;;;;;5.45;2.70;;;;;;;;;;5041985;28;20021;-67
2022/05/06 01:20:24;;;;;;;7.25;2.65;;;;;;;;;;5047023;28;20422;-67
2022/05/06 01:22:56;;;;;;;3.00;2.40;;;;;;;;;;5038934;28;20025;-67
2022/05/06 01:25:21;;;;;;;3.92;2.63;;;;;;;;;;5033723;28;20107;-67
2022/05/06 01:28:00;;;;;;;2.97;2.70;;;;;;;;;;5035357;28;20450;-66
2022/05/06 01:30:29;;;;;;;4.85;2.67;;;;;;;;;;5038006;28;20032;-66
2022/05/06 01:32:56;;;;;;;4.70;2.58;;;;;;;;;;5033612;28;20044;-67
2022/05/06 01:35:24;;;;;;;3.08;2.85;;;;;;;;;;5035667;28;20047;-66
2022/05/06 01:37:53;;;;;;;6.28;2.42;;;;;;;;;;5036867;28;20021;-67
2022/05/06 01:40:21;;;;;;;3.92;2.80;;;;;;;;;;5037399;28;20973;-67
2022/05/06 01:42:50;;;;;;;3.42;2.30;;;;;;;;;;5036155;28;20033;-66
2022/05/06 01:45:18;;;;;;;2.90;2.58;;;;;;;;;;5042726;28;20107;-66
2022/05/06 01:47:45;;;;;;;4.22;2.55;;;;;;;;;;5040226;28;20025;-66
2022/05/06 01:50:12;;;;;;;4.22;2.80;;;;;;;;;;5038234;28;20046;-66
2022/05/06 01:52:40;;;;;;;4.05;2.70;;;;;;;;;;5043447;28;20025;-66
2022/05/06 01:55:06;;;;;;;3.78;2.50;;;;;;;;;;5041564;28;20053;-67
2022/05/06 01:57:32;;;;;;;3.17;2.80;;;;;;;;;;5040016;28;20056;-67
2022/05/06 01:59:58;;;;;;;4.82;2.92;;;;;;;;;;5040913;28;20057;-67
2022/05/06 02:02:24;;;;;;;4.05;2.58;;;;;;;;;;5041860;28;20493;-66
2022/05/06 02:07:34;;;;;;;6.93;3.20;;;;;;;;;;5041409;28;20091;-66
2022/05/06 02:09:59;;;;;;;6.80;3.00;;;;;;;;;;5039339;28;20466;-66
2022/05/06 02:12:26;;;;;;;7.03;2.65;;;;;;;;;;5041049;28;20025;-66
2022/05/06 02:14:51;;;;;;;4.78;2.90;;;;;;;;;;5041058;28;20040;-67
2022/05/06 02:17:17;;;;;;;3.67;2.75;;;;;;;;;;5047456;28;20471;-67
2022/05/06 02:19:43;;;;;;;3.45;2.80;;;;;;;;;;5044594;28;20042;-66
2022/05/06 02:22:09;;;;;;;9.00;2.85;;;;;;;;;;5040349;28;20029;-66
2022/05/06 02:24:34;;;;;;;3.03;2.72;;;;;;;;;;5040645;28;20032;-66
2022/05/06 02:27:00;;;;;;;2.92;2.70;;;;;;;;;;5042530;28;20426;-66
2022/05/06 02:29:26;;;;;;;2.53;2.33;;;;;;;;;;5038467;28;20029;-67
2022/05/06 02:34:36;;;;;;;6.07;2.67;;;;;;;;;;5038359;28;20029;-66
2022/05/06 02:37:02;;;;;;;3.58;2.92;;;;;;;;;;5040150;28;20041;-67
2022/05/06 02:39:28;;;;;;;6.95;2.40;;;;;;;;;;5038073;28;20039;-67
2022/05/06 02:41:55;;;;;;;2.95;2.67;;;;;;;;;;5036965;28;20446;-67
2022/05/06 02:44:21;;;;;;;3.42;2.38;;;;;;;;;;5046996;28;20036;-67
2022/05/06 02:46:47;;;;;;;4.53;2.55;;;;;;;;;;5070651;28;20029;-67
2022/05/06 02:49:12;;;;;;;4.63;2.70;;;;;;;;;;5043843;28;20118;-67
2022/05/06 02:51:39;;;;;;;3.13;2.80;;;;;;;;;;5069972;28;20025;-66
2022/05/06 02:54:06;;;;;;;2.90;2.60;;;;;;;;;;5036962;28;20099;-66
2022/05/06 02:56:32;;;;;;;5.45;2.55;;;;;;;;;;5037714;28;20026;-67
2022/05/06 02:58:58;;;;;;;3.97;2.80;;;;;;;;;;5040918;28;20032;-67
2022/05/06 03:01:24;;;;;;;4.53;2.72;;;;;;;;;;5034625;28;20029;-66
2022/05/06 03:03:51;;;;;;;5.82;2.63;;;;;;;;;;5037843;28;20486;-67
2022/05/06 03:06:18;;;;;;;4.22;2.60;;;;;;;;;;5036135;28;20382;-67
2022/05/06 03:08:43;;;;;;;4.65;2.65;;;;;;;;;;5039511;28;20036;-67
2022/05/06 03:11:09;;;;;;;4.47;2.95;;;;;;;;;;5044116;28;20044;-67
2022/05/06 03:13:35;;;;;;;2.97;2.40;;;;;;;;;;5043100;28;20439;-67
2022/05/06 03:16:00;;;;;;;3.65;2.70;;;;;;;;;;5038329;28;20056;-66
2022/05/06 03:18:27;;;;;;;3.33;2.38;;;;;;;;;;5040971;28;20400;-66
2022/05/06 03:20:53;;;;;;;2.55;2.35;;;;;;;;;;5041120;28;20104;-67
2022/05/06 03:23:19;;;;;;;7.22;2.60;;;;;;;;;;5039879;28;20117;-67
2022/05/06 03:25:44;;;;;;;3.03;2.75;;;;;;;;;;5040369;28;20036;-67
2022/05/06 03:28:10;;;;;;;3.08;2.30;;;;;;;;;;5037723;28;20500;-67
2022/05/06 03:30:44;;;;;;;5.63;2.58;;;;;;;;;;5037717;28;20029;-67
2022/05/06 03:33:12;;;;;;;4.57;2.50;;;;;;;;;;5035363;28;20492;-67
2022/05/06 03:35:39;;;;;;;2.90;2.67;;;;;;;;;;5040557;28;20482;-67
2022/05/06 03:38:06;;;;;;;3.08;2.50;;;;;;;;;;5045757;28;20064;-66
2022/05/06 03:40:33;;;;;;;3.10;2.30;;;;;;;;;;5037086;28;20032;-66
2022/05/06 03:43:00;;;;;;;2.65;2.22;;;;;;;;;;5037956;28;20043;-67
2022/05/06 03:45:26;;;;;;;3.35;2.47;;;;;;;;;;5042466;28;20061;-67
2022/05/06 03:47:52;;;;;;;4.47;2.53;;;;;;;;;;5036444;28;20061;-67
2022/05/06 03:53:02;;;;;;;2.65;2.42;;;;;;;;;;5037863;28;20034;-67
2022/05/06 03:55:28;;;;;;;5.53;2.45;;;;;;;;;;5042070;28;20041;-67
2022/05/06 03:57:54;;;;;;;2.67;2.47;;;;;;;;;;5036661;28;20032;-67
2022/05/06 04:00:19;;;;;;;2.35;2.20;;;;;;;;;;5040969;28;20032;-67
2022/05/06 04:02:45;;;;;;;2.42;2.28;;;;;;;;;;5038299;28;20059;-67
2022/05/06 04:05:11;;;;;;;2.90;2.60;;;;;;;;;;5039207;28;20551;-66
2022/05/06 04:07:37;;;;;;;2.20;2.05;;;;;;;;;;5040714;28;20044;-66
2022/05/06 04:10:03;;;;;;;2.55;2.35;;;;;;;;;;5039684;28;20537;-67
2022/05/06 04:12:29;;;;;;;3.03;2.22;;;;;;;;;;5036425;28;20021;-67
2022/05/06 04:14:55;;;;;;;4.20;2.72;;;;;;;;;;5033149;28;20460;-67
2022/05/06 04:17:21;;;;;;;2.97;2.72;;;;;;;;;;5036657;28;20397;-67
2022/05/06 04:25:18;;;;;;;3.22;2.45;;;;;;;;;;5041022;28;20025;-67
2022/05/06 04:27:44;;;;;;;3.75;2.63;;;;;;;;;;5038386;28;20075;-67
2022/05/06 04:30:11;;;;;;;4.45;2.55;;;;;;;;;;5032993;28;20037;-67
2022/05/06 04:32:38;;;;;;;2.72;2.30;;;;;;;;;;5036673;28;20033;-67
2022/05/06 04:35:06;;;;;;;5.15;2.50;;;;;;;;;;5046445;28;20060;-67
2022/05/06 04:37:32;;;;;;;3.03;2.53;;;;;;;;;;5036955;28;20580;-67
2022/05/06 04:39:58;;;;;;;5.90;2.78;;;;;;;;;;5038744;28;20032;-67
2022/05/06 04:42:25;;;;;;;2.58;2.40;;;;;;;;;;5037396;28;20029;-67
2022/05/06 04:44:51;;;;;;;2.97;2.70;;;;;;;;;;5034852;28;20084;-67
2022/05/06 04:47:17;;;;;;;4.85;2.47;;;;;;;;;;5039977;28;20482;-66
2022/05/06 04:49:42;;;;;;;4.45;2.70;;;;;;;;;;5036295;28;20043;-67
2022/05/06 04:52:08;;;;;;;3.30;2.38;;;;;;;;;;5038828;28;20040;-66
2022/05/06 04:54:34;;;;;;;4.80;2.75;;;;;;;;;;5032380;28;20077;-67
2022/05/06 04:57:00;;;;;;;4.22;3.00;;;;;;;;;;5034509;28;20025;-67
2022/05/06 04:59:25;;;;;;;5.97;2.50;;;;;;;;;;5037669;28;20025;-67
2022/05/06 05:01:51;;;;;;;4.03;2.80;;;;;;;;;;5040064;28;20025;-67
2022/05/06 05:04:17;;;;;;;7.00;2.67;;;;;;;;;;5037295;28;20021;-67
2022/05/06 05:06:42;;;;;;;3.28;2.50;;;;;;;;;;5043056;28;20090;-67
2022/05/06 05:09:08;;;;;;;2.95;2.70;;;;;;;;;;5038800;28;20032;-67
2022/05/06 05:11:34;;;;;;;3.65;3.00;;;;;;;;;;5039158;28;20032;-67
2022/05/06 05:14:03;;;;;;;6.03;2.55;;;;;;;;;;5040520;28;20033;-67
2022/05/06 05:16:29;;;;;;;5.13;2.45;;;;;;;;;;5042140;28;20499;-67
2022/05/06 05:18:55;;;;;;;4.90;2.80;;;;;;;;;;5043552;28;20067;-67
2022/05/06 05:21:21;;;;;;;3.47;2.65;;;;;;;;;;5044885;28;20389;-67
2022/05/06 05:23:46;;;;;;;6.10;2.25;;;;;;;;;;5040257;28;20025;-67
2022/05/06 05:26:12;;;;;;;3.13;2.55;;;;;;;;;;5046793;28;20650;-67
2022/05/06 05:28:38;;;;;;;4.05;2.90;;;;;;;;;;5038718;28;20041;-66
2022/05/06 05:31:04;;;;;;;3.35;2.53;;;;;;;;;;5044482;28;20047;-67
2022/05/06 05:33:30;;;;;;;5.55;2.60;;;;;;;;;;5046162;28;20040;-67
2022/05/06 05:35:56;;;;;;;4.47;2.60;;;;;;;;;;5042730;28;20841;-66
2022/05/06 05:38:22;;;;;;;2.85;2.58;;;;;;;;;;5041133;28;20033;-67
2022/05/06 05:40:48;;;;;;;5.45;2.60;;;;;;;;;;5047730;28;20111;-67
2022/05/06 05:48:42;;;;;;;3.47;3.13;;;;;;;;;;5044690;28;20016;-67
2022/05/06 05:51:09;;;;;;;3.10;2.60;;;;;;;;;;5041804;28;20021;-65
2022/05/06 05:53:34;;;;;;;7.88;3.03;;;;;;;;;;5040977;28;20108;-67
2022/05/06 05:56:00;;;;;;;8.95;3.20;;;;;;;;;;5043808;28;20474;-67
2022/05/06 05:58:26;;;;;;;6.47;3.42;;;;;;;;;;5043108;28;20032;-66
2022/05/06 06:00:53;;;;;;;10.68;3.78;;;;;;;;;;5040458;28;20053;-66
2022/05/06 06:03:19;;;;;;;3.75;3.08;;;;;;;;;;5049061;28;21099;-67
2022/05/06 06:05:44;;;;;;;4.43;2.88;;;;;;;;;;5039956;28;20033;-67
2022/05/06 06:08:10;;;;;;;5.80;2.97;;;;;;;;;;5056398;28;20116;-67
2022/05/06 06:10:36;;;;;;;4.40;3.17;;;;;;;;;;5043676;28;20120;-67
2022/05/06 06:13:04;;;;;;;6.95;2.92;;;;;;;;;;5042551;28;20115;-66
2022/05/06 06:15:32;;;;;;;2.80;2.60;;;;;;;;;;5039005;28;20028;-67
2022/05/06 06:17:58;;;;;;;3.28;2.63;;;;;;;;;;5043193;28;20034;-67
2022/05/06 06:20:24;;;;;;;3.80;2.65;;;;;;;;;;5053792;28;20059;-67
2022/05/06 06:22:50;;;;;;;2.85;2.63;;;;;;;;;;5039611;28;20086;-66
2022/05/06 06:25:16;;;;;;;4.43;2.60;;;;;;;;;;5041992;28;20036;-66
2022/05/06 06:27:43;;;;;;;6.75;2.35;;;;;;;;;;5041864;28;20029;-67
2022/05/06 06:30:10;;;;;;;9.25;2.97;;;;;;;;;;5036479;28;20463;-66
2022/05/06 06:32:36;;;;;;;4.57;3.00;;;;;;;;;;5042522;28;20036;-67
2022/05/06 06:35:02;;;;;;;3.75;2.72;;;;;;;;;;5044474;28;20466;-67
2022/05/06 06:37:31;;;;;;;4.32;2.60;;;;;;;;;;5042031;28;20028;-67
2022/05/06 06:39:57;;;;;;;5.13;2.78;;;;;;;;;;5042758;28;20021;-67
2022/05/06 06:42:23;;;;;;;3.67;2.70;;;;;;;;;;5040412;28;20079;-67
2022/05/06 06:44:49;;;;;;;3.38;2.70;;;;;;;;;;5042521;28;20585;-67
2022/05/06 06:47:15;;;;;;;8.18;3.00;;;;;;;;;;5040060;28;20033;-67
2022/05/06 06:49:40;;;;;;;4.93;2.80;;;;;;;;;;5042519;28;20055;-68
2022/05/06 06:52:06;;;;;;;2.70;2.50;;;;;;;;;;5042774;28;20044;-66
2022/05/06 06:54:32;;;;;;;5.88;3.00;;;;;;;;;;5039558;28;20049;-67
2022/05/06 06:56:58;;;;;;;5.47;3.35;;;;;;;;;;5042735;28;20032;-67
2022/05/06 06:59:25;;;;;;;6.25;2.70;;;;;;;;;;5046394;28;20036;-67
2022/05/06 07:01:50;;;;;;;3.13;2.40;;;;;;;;;;5042642;28;20036;-67
2022/05/06 07:04:17;;;;;;;5.20;2.78;;;;;;;;;;5040891;28;20025;-67
2022/05/06 07:12:11;;;;;;;4.28;3.33;;;;;;;;;;5039906;28;20040;-67
2022/05/06 07:14:37;;;;;;;5.03;2.90;;;;;;;;;;5041407;28;20107;-66
2022/05/06 07:17:05;;;;;;;7.72;3.30;;;;;;;;;;5037098;28;20056;-67
2022/05/06 07:19:32;;;;;;;4.00;2.88;;;;;;;;;;5037637;28;20029;-67
2022/05/06 07:21:58;;;;;;;3.95;2.97;;;;;;;;;;5042179;28;20090;-67
2022/05/06 07:24:24;;;;;;;5.63;3.13;;;;;;;;;;5035792;28;20029;-67
2022/05/06 07:26:51;;;;;;;9.73;3.20;;;;;;;;;;5037343;28;20438;-67
2022/05/06 07:29:17;;;;;;;9.32;3.42;;;;;;;;;;5034911;28;20053;-67
2022/05/06 07:31:43;;;;;;;8.98;3.22;;;;;;;;;;5036311;28;20068;-67
2022/05/06 07:34:12;;;;;;;7.72;3.47;;;;;;;;;;5036574;28;20083;-67
2022/05/06 07:36:42;;;;;;;15.98;3.08;;;;;;;;;;5037606;28;20029;-68
2022/05/06 07:39:12;;;;;;;4.57;3.10;;;;;;;;;;5044860;28;20470;-67
2022/05/06 07:41:38;;;;;;;6.20;2.97;;;;;;;;;;5046369;28;22855;-67
2022/05/06 07:44:04;;;;;;;10.27;3.40;;;;;;;;;;5037796;28;20037;-67
2022/05/06 07:46:31;;;;;;;3.42;2.80;;;;;;;;;;5038645;28;20025;-67
2022/05/06 07:48:57;;;;;;;16.55;4.15;;;;;;;;;;5039858;28;20044;-67
2022/05/06 07:51:23;;;;;;;4.97;2.55;;;;;;;;;;5038182;28;20040;-67
2022/05/06 07:53:51;;;;;;;9.25;2.20;;;;;;;;;;5038966;28;20644;-67
2022/05/06 07:56:20;;;;;;;9.25;2.97;;;;;;;;;;5045130;28;20049;-67
2022/05/06 07:58:46;;;;;;;2.90;2.60;;;;;;;;;;5040534;28;20071;-67
2022/05/06 08:01:12;;;;;;;8.63;3.20;;;;;;;;;;5036461;28;20030;-67
2022/05/06 08:06:22;;;;;;;2.75;2.20;;;;;;;;;;5036281;28;20486;-67
2022/05/06 08:08:48;;;;;;;4.63;2.60;;;;;;;;;;5034265;28;20090;-67
2022/05/06 08:11:14;;;;;;;2.13;2.03;;;;;;;;;;5043807;28;20029;-67
2022/05/06 08:13:40;;;;;;;8.85;2.53;;;;;;;;;;5037923;28;20040;-67
2022/05/06 08:16:06;;;;;;;7.72;2.65;;;;;;;;;;5042824;28;20037;-67
2022/05/06 08:18:31;;;;;;;4.25;2.70;;;;;;;;;;5040118;28;20477;-67
2022/05/06 08:20:57;;;;;;;5.28;3.05;;;;;;;;;;5033820;28;20397;-67
2022/05/06 08:23:23;;;;;;;3.35;2.38;;;;;;;;;;5042943;28;20041;-67
2022/05/06 08:25:53;;;;;;;3.35;2.50;;;;;;;;;;5039158;28;20026;-67
2022/05/06 08:28:20;;;;;;;10.57;2.83;;;;;;;;;;5041011;28;20094;-67
2022/05/06 08:30:49;;;;;;;3.53;2.33;;;;;;;;;;5040045;28;20091;-66
2022/05/06 08:33:15;;;;;;;3.53;2.65;;;;;;;;;;5028196;28;20033;-66
2022/05/06 08:35:42;;;;;;;3.22;2.35;;;;;;;;;;5037183;28;20083;-66
2022/05/06 08:38:11;;;;;;;5.97;2.05;;;;;;;;;;5039311;28;20056;-65
2022/05/06 08:40:37;;;;;;;2.88;2.60;;;;;;;;;;5038674;28;20449;-66
2022/05/06 08:43:06;;;;;;;6.30;2.45;;;;;;;;;;5034922;28;20072;-66
2022/05/06 08:51:03;;;;;;;3.25;2.33;;;;;;;;;;5039809;28;20025;-66
2022/05/06 08:53:32;;;;;;;4.30;2.20;;;;;;;;;;5035913;28;20038;-66
2022/05/06 08:55:59;;;;;;;2.58;2.40;;;;;;;;;;5039614;28;20056;-66
2022/05/06 08:58:27;;;;;;;2.95;2.35;;;;;;;;;;5034534;28;20029;-66
2022/05/06 09:01:03;;;;;;;3.13;2.33;;;;;;;;;;5042519;28;20570;-66
2022/05/06 09:03:29;;;;;;;2.95;2.65;;;;;;;;;;5034913;28;20029;-66
2022/05/06 09:05:58;;;;;;;3.83;2.67;;;;;;;;;;5034234;28;20390;-66
2022/05/06 09:08:55;;;;;;;7.65;2.30;;;;;;;;;;5034331;28;20060;-66
2022/05/06 09:14:07;;;;;;;2.50;2.10;;;;;;;;;;5040384;28;20025;-66
2022/05/06 09:16:46;;;;;;;2.70;2.38;;;;;;;;;;5038992;28;20048;-68
2022/05/06 09:19:23;;;;;;;3.25;2.45;;;;;;;;;;5035470;28;20032;-66
2022/05/06 09:21:59;;;;;;;2.38;2.17;;;;;;;;;;5034599;28;20033;-66
2022/05/06 09:24:28;;;;;;;4.00;2.60;;;;;;;;;;5032242;28;20028;-66
2022/05/06 09:27:08;;;;;;;9.00;2.40;;;;;;;;;;5038829;28;20032;-66
2022/05/06 09:29:42;;;;;;;2.60;2.38;;;;;;;;;;5035808;28;20108;-66
2022/05/06 09:32:28;;;;;;;2.63;2.10;;;;;;;;;;5038487;28;20112;-66
2022/05/06 09:35:11;;;;;;;2.72;2.35;;;;;;;;;;5036072;28;20033;-68
2022/05/06 09:37:44;;;;;;;4.15;2.47;;;;;;;;;;5038892;28;20034;-66
2022/05/06 09:40:12;;;;;;;2.83;2.40;;;;;;;;;;5034386;28;20025;-67
2022/05/06 09:42:41;;;;;;;3.00;2.55;;;;;;;;;;5038826;28;20082;-66
2022/05/06 09:45:08;;;;;;;2.80;2.45;;;;;;;;;;5037749;28;20029;-65
2022/05/06 09:47:35;;;;;;;5.88;2.53;;;;;;;;;;5043112;28;20033;-66
2022/05/06 09:50:02;;;;;;;4.43;2.28;;;;;;;;;;5041875;28;20170;-67
2022/05/06 09:52:28;;;;;;;2.83;2.53;;;;;;;;;;5035262;28;20749;-66
2022/05/06 09:54:54;;;;;;;4.13;2.47;;;;;;;;;;5040445;28;20041;-67
2022/05/06 09:57:20;;;;;;;2.30;2.20;;;;;;;;;;5035518;28;20029;-68
2022/05/06 09:59:47;;;;;;;2.45;2.28;;;;;;;;;;5035327;28;20040;-68
2022/05/06 10:02:13;;;;;;;2.20;2.10;;;;;;;;;;5040361;28;20037;-68
2022/05/06 10:04:39;;;;;;;3.38;2.17;;;;;;;;;;5038694;28;20025;-67
2022/05/06 10:07:13;;;;;;;3.83;2.40;;;;;;;;;;5038395;28;20025;-67
2022/05/06 10:09:58;;;;;;;2.70;2.50;;;;;;;;;;5040387;28;20381;-67
2022/05/06 10:12:27;;;;;;;2.60;2.40;;;;;;;;;;5044555;28;20044;-67
2022/05/06 10:14:53;;;;;;;2.30;2.10;;;;;;;;;;5042437;28;20041;-67
2022/05/06 10:17:55;;;;;;;2.20;2.00;;;;;;;;;;5041487;28;20025;-67
2022/05/06 10:20:41;;;;;;;2.30;2.20;;;;;;;;;;5038066;28;20080;-67
2022/05/06 10:23:09;;;;;;;3.70;2.40;;;;;;;;;;5037977;28;20041;-68
2022/05/06 10:25:41;;;;;;;2.35;2.00;;;;;;;;;;5041943;28;20028;-67
2022/05/06 10:34:14;;;;;;;6.88;2.78;;;;;;;;;;5043525;28;20056;-68
2022/05/06 10:36:51;;;;;;;2.05;1.95;;;;;;;;;;5044049;28;20462;-67
2022/05/06 10:39:20;;;;;;;3.40;2.17;;;;;;;;;;5039171;28;20044;-68
2022/05/06 10:42:05;;;;;;;4.20;2.42;;;;;;;;;;5042841;28;20527;-68
2022/05/06 10:44:35;;;;;;;2.30;1.92;;;;;;;;;;5036068;28;20040;-68
2022/05/06 10:47:03;;;;;;;2.28;2.08;;;;;;;;;;5041224;28;20029;-67
2022/05/06 10:49:35;;;;;;;2.38;2.10;;;;;;;;;;5042344;28;20040;-67
2022/05/06 10:52:15;;;;;;;4.65;2.20;;;;;;;;;;5041344;28;20402;-67
2022/05/06 10:54:41;;;;;;;2.97;2.15;;;;;;;;;;5034995;28;20056;-68
2022/05/06 10:57:08;;;;;;;2.75;1.83;;;;;;;;;;5038225;28;20032;-68
2022/05/06 10:59:53;;;;;;;2.58;1.95;;;;;;;;;;5034827;28;20079;-66
2022/05/06 11:02:32;;;;;;;2.25;2.00;;;;;;;;;;5052765;28;20060;-67
2022/05/06 11:05:12;;;;;;;3.30;2.38;;;;;;;;;;5039579;28;20111;-67
2022/05/06 11:07:39;;;;;;;3.38;2.00;;;;;;;;;;5039709;28;20450;-68
2022/05/06 11:10:16;;;;;;;7.55;2.10;;;;;;;;;;5040366;28;20028;-67
2022/05/06 11:12:43;;;;;;;2.30;2.10;;;;;;;;;;5042379;28;20043;-67
2022/05/06 11:15:14;;;;;;;2.00;1.88;;;;;;;;;;5039349;28;20041;-67
2022/05/06 11:17:42;;;;;;;2.38;1.58;;;;;;;;;;5041323;28;20138;-67
2022/05/06 11:20:38;;;;;;;3.60;1.75;;;;;;;;;;5039642;28;20076;-67
2022/05/06 11:23:14;;;;;;;2.17;1.85;;;;;;;;;;5041198;28;20068;-67
2022/05/06 11:25:43;;;;;;;3.40;1.80;;;;;;;;;;5034052;28;20017;-64
2022/05/06 11:28:13;;;;;;;2.10;1.88;;;;;;;;;;5043527;28;20029;-66
2022/05/06 11:30:46;;;;;;;1.95;1.83;;;;;;;;;;5042227;28;20428;-66
2022/05/06 11:33:24;;;;;;;2.75;1.77;;;;;;;;;;5037450;28;20037;-66
2022/05/06 11:35:52;;;;;;;4.20;1.70;;;;;;;;;;5036819;28;21480;-66
2022/05/06 11:38:37;;;;;;;3.65;1.80;;;;;;;;;;5038481;28;20061;-67
2022/05/06 11:41:17;;;;;;;3.28;1.70;;;;;;;;;;5045824;28;20032;-66
2022/05/06 11:43:45;;;;;;;1.60;1.50;;;;;;;;;;5043187;28;20029;-67
2022/05/06 11:49:04;;;;;;;1.60;1.50;;;;;;;;;;5044774;28;20087;-66
2022/05/06 11:51:33;;;;;;;2.85;1.50;;;;;;;;;;5036715;28;20037;-67
2022/05/06 11:54:00;;;;;;;4.65;1.85;;;;;;;;;;5036123;28;20661;-58
2022/05/06 11:56:27;;;;;;;1.83;1.73;;;;;;;;;;5034761;28;20034;-63
2022/05/06 11:58:57;;;;;;;6.18;1.70;;;;;;;;;;5039845;28;20168;-64
2022/05/06 12:01:26;;;;;;;5.97;1.90;;;;;;;;;;5039495;28;20659;-64
2022/05/06 12:03:52;;;;;;;4.95;1.80;;;;;;;;;;5042539;28;20143;-63
2022/05/06 12:06:25;;;;;;;2.03;1.92;;;;;;;;;;5035801;28;20021;-64
2022/05/06 12:08:51;;;;;;;1.77;1.67;;;;;;;;;;5035266;28;20040;-64
2022/05/06 12:11:24;;;;;;;1.73;1.63;;;;;;;;;;5042538;28;20026;-63
2022/05/06 12:13:50;;;;;;;2.33;1.70;;;;;;;;;;5043264;28;20030;-64
2022/05/06 12:16:16;;;;;;;3.25;1.55;;;;;;;;;;5036510;28;20086;-64
2022/05/06 12:18:52;;;;;;;2.83;1.73;;;;;;;;;;5041114;28;20037;-64
2022/05/06 12:21:23;;;;;;;4.85;1.70;;;;;;;;;;5038736;28;20059;-64
2022/05/06 12:23:54;;;;;;;5.15;1.60;;;;;;;;;;5035205;28;20342;-61
2022/05/06 12:26:31;;;;;;;1.60;1.50;;;;;;;;;;5035821;28;20100;-65
2022/05/06 12:28:58;;;;;;;2.15;1.70;;;;;;;;;;5036385;28;20482;-64
2022/05/06 12:31:31;;;;;;;2.50;1.60;;;;;;;;;;5036656;28;20037;-65
2022/05/06 12:34:01;;;;;;;1.90;1.80;;;;;;;;;;5037559;28;20043;-64
2022/05/06 12:36:27;;;;;;;3.30;1.73;;;;;;;;;;5031742;28;20033;-66
2022/05/06 12:38:53;;;;;;;1.60;1.50;;;;;;;;;;5040486;28;20034;-65
2022/05/06 12:41:25;;;;;;;1.60;1.50;;;;;;;;;;5037936;28;20367;-65
2022/05/06 12:43:58;;;;;;;2.75;1.35;;;;;;;;;;5040923;28;20033;-64
2022/05/06 12:46:28;;;;;;;2.05;1.58;;;;;;;;;;5037866;28;20094;-64
2022/05/06 12:51:41;;;;;;;2.88;1.40;;;;;;;;;;5036895;28;20051;-67
2022/05/06 12:54:08;;;;;;;3.28;1.40;;;;;;;;;;5037944;28;20032;-63
2022/05/06 12:56:34;;;;;;;1.30;1.20;;;;;;;;;;5033789;28;21067;-64
2022/05/06 12:59:00;;;;;;;2.03;1.60;;;;;;;;;;5039206;28;20021;-64
2022/05/06 13:01:26;;;;;;;1.70;1.60;;;;;;;;;;5035038;28;20030;-64
2022/05/06 13:03:51;;;;;;;5.03;1.80;;;;;;;;;;5037086;28;20043;-63
2022/05/06 13:06:17;;;;;;;1.55;1.45;;;;;;;;;;5038816;28;20090;-65
2022/05/06 13:08:43;;;;;;;2.97;1.92;;;;;;;;;;5040101;28;20021;-65
2022/05/06 13:11:09;;;;;;;1.80;1.70;;;;;;;;;;5038153;28;20029;-62
2022/05/06 13:13:34;;;;;;;2.92;1.52;;;;;;;;;;5035908;28;20109;-65
2022/05/06 13:16:00;;;;;;;3.33;1.92;;;;;;;;;;5039104;28;20021;-65
2022/05/06 13:18:26;;;;;;;1.98;1.63;;;;;;;;;;5036079;28;20113;-64
2022/05/06 13:20:52;;;;;;;1.60;1.50;;;;;;;;;;5033920;28;20104;-64
2022/05/06 13:23:18;;;;;;;4.20;1.50;;;;;;;;;;5036766;28;20462;-64
2022/05/06 13:25:45;;;;;;;2.55;1.70;;;;;;;;;;5053264;28;20552;-65
2022/05/06 13:28:11;;;;;;;1.48;1.40;;;;;;;;;;5033986;28;20033;-65
2022/05/06 13:30:37;;;;;;;2.22;1.52;;;;;;;;;;5042904;28;20115;-65
2022/05/06 13:33:03;;;;;;;1.63;1.52;;;;;;;;;;5043512;28;20443;-66
2022/05/06 13:35:29;;;;;;;2.75;1.70;;;;;;;;;;5033789;28;20064;-65
2022/05/06 13:37:55;;;;;;;1.50;1.40;;;;;;;;;;5039590;28;20099;-64
2022/05/06 13:40:20;;;;;;;5.07;1.75;;;;;;;;;;5040446;28;20080;-65
2022/05/06 13:42:46;;;;;;;2.80;1.63;;;;;;;;;;5042419;28;20033;-65
2022/05/06 13:45:12;;;;;;;1.25;1.23;;;;;;;;;;5038381;28;20025;-64
2022/05/06 13:47:39;;;;;;;2.13;1.50;;;;;;;;;;5037815;28;20539;-64
2022/05/06 13:50:06;;;;;;;6.03;1.60;;;;;;;;;;5038532;28;20029;-64
2022/05/06 13:52:33;;;;;;;2.08;1.88;;;;;;;;;;5042272;28;20490;-64
2022/05/06 13:55:03;;;;;;;1.50;1.40;;;;;;;;;;5038740;28;20056;-65
2022/05/06 14:00:18;;;;;;;5.95;1.42;;;;;;;;;;5041189;28;20036;-65
2022/05/06 14:02:44;;;;;;;1.98;1.30;;;;;;;;;;5038516;28;20500;-64
2022/05/06 14:05:10;;;;;;;3.30;1.60;;;;;;;;;;5044121;28;20036;-65
2022/05/06 14:07:36;;;;;;;2.35;1.40;;;;;;;;;;5039198;28;20481;-65
2022/05/06 14:10:03;;;;;;;2.30;1.40;;;;;;;;;;5042895;28;20029;-65
2022/05/06 14:12:29;;;;;;;2.33;1.50;;;;;;;;;;5041260;28;20099;-65
2022/05/06 14:14:55;;;;;;;3.83;1.70;;;;;;;;;;5038965;28;20109;-65
2022/05/06 14:17:22;;;;;;;2.40;1.58;;;;;;;;;;5040940;28;20037;-65
2022/05/06 14:19:48;;;;;;;2.88;1.70;;;;;;;;;;5037630;28;20033;-64
2022/05/06 14:22:14;;;;;;;2.65;1.60;;;;;;;;;;5042603;28;20816;-64
2022/05/06 14:24:42;;;;;;;5.55;1.60;;;;;;;;;;5043214;28;20487;-65
2022/05/06 14:27:08;;;;;;;6.32;1.70;;;;;;;;;;5038351;28;20036;-64
2022/05/06 14:29:37;;;;;;;2.95;1.70;;;;;;;;;;5040437;28;20033;-64
2022/05/06 14:32:03;;;;;;;5.93;2.00;;;;;;;;;;5035112;28;20041;-64
2022/05/06 14:34:30;;;;;;;5.13;1.70;;;;;;;;;;5035805;28;20491;-63
2022/05/06 14:36:56;;;;;;;3.28;1.23;;;;;;;;;;5039587;28;20104;-63
2022/05/06 14:39:21;;;;;;;1.30;1.25;;;;;;;;;;5037508;28;20175;-65
2022/05/06 14:41:47;;;;;;;8.35;1.40;;;;;;;;;;5036632;28;20440;-64
2022/05/06 14:44:13;;;;;;;4.80;1.42;;;;;;;;;;5041511;28;20043;-64
2022/05/06 14:46:40;;;;;;;4.15;1.45;;;;;;;;;;5036967;28;20501;-65
2022/05/06 14:49:06;;;;;;;2.38;1.50;;;;;;;;;;5043358;28;20033;-64
2022/05/06 14:51:33;;;;;;;1.77;1.23;;;;;;;;;;5041021;28;20025;-64
2022/05/06 14:54:00;;;;;;;4.22;1.30;;;;;;;;;;5035808;28;20033;-60
2022/05/06 14:56:26;;;;;;;1.42;1.33;;;;;;;;;;5039179;28;20029;-64
2022/05/06 14:58:51;;;;;;;6.03;1.58;;;;;;;;;;5039532;28;20039;-64
2022/05/06 15:01:17;;;;;;;5.05;1.58;;;;;;;;;;5043088;28;20030;-64
2022/05/06 15:03:44;;;;;;;2.25;1.30;;;;;;;;;;5036042;28;20083;-64
2022/05/06 15:06:09;;;;;;;3.95;1.60;;;;;;;;;;5035533;28;20033;-64
2022/05/06 15:08:35;;;;;;;5.97;1.60;;;;;;;;;;5039400;28;20112;-64
2022/05/06 15:11:03;;;;;;;1.58;1.48;;;;;;;;;;5041710;28;20116;-65
2022/05/06 15:13:29;;;;;;;1.65;1.50;;;;;;;;;;5041282;28;20060;-65
2022/05/06 15:15:59;;;;;;;4.18;1.50;;;;;;;;;;5039177;28;20032;-65
2022/05/06 15:21:10;;;;;;;4.13;1.48;;;;;;;;;;5038779;28;20111;-63
2022/05/06 15:23:45;;;;;;;5.35;1.50;;;;;;;;;;5033231;28;20039;-64
2022/05/06 15:26:12;;;;;;;3.15;1.33;;;;;;;;;;5042716;28;20041;-64
2022/05/06 15:28:37;;;;;;;1.20;1.20;;;;;;;;;;5038032;28;20029;-65
2022/05/06 15:31:03;;;;;;;1.60;1.50;;;;;;;;;;5037666;28;20033;-64
2022/05/06 15:33:29;;;;;;;2.53;1.50;;;;;;;;;;5040545;28;20413;-65
2022/05/06 15:35:58;;;;;;;1.35;1.30;;;;;;;;;;5034150;28;20026;-64
2022/05/06 15:38:23;;;;;;;2.90;1.40;;;;;;;;;;5036828;28;20489;-64
2022/05/06 15:40:53;;;;;;;2.70;1.40;;;;;;;;;;5036784;28;20040;-65